Time;durP1;ratioP1;P1;durP2;ratioP2;P2;SDS_P1;SDS_P2;PMS_P1;PMS_P2;Temp;Humidity;BMP_temperature;BMP_pressure;BME280_temperature;BME280_humidity;BME280_pressure;Samples;Min_cycle;Max_cycle;Signal;HPM_P1;HPM_P2
2022/11/05 00:10:20;;;;;;;26.70;15.30;;;5.30;99.90;;;;;;4882610;29;20168;-66
2022/11/05 00:18:19;;;;;;;20.10;15.15;;;5.30;99.90;;;;;;4889484;29;20049;-68
2022/11/05 00:20:45;;;;;;;20.73;13.13;;;5.30;99.90;;;;;;4863655;29;20052;-66
2022/11/05 00:26:03;;;;;;;21.17;14.93;;;5.30;99.90;;;;;;4865553;29;20049;-65
2022/11/05 00:28:30;;;;;;;20.63;13.82;;;5.30;99.90;;;;;;4863817;29;20045;-65
2022/11/05 00:31:12;;;;;;;22.77;15.07;;;5.30;99.90;;;;;;4853693;29;20060;-68
2022/11/05 00:33:40;;;;;;;20.90;12.95;;;5.40;99.90;;;;;;4865904;29;20060;-66
2022/11/05 00:36:08;;;;;;;22.55;13.93;;;5.40;99.90;;;;;;4864046;29;20048;-65
2022/11/05 00:38:35;;;;;;;29.60;16.27;;;5.40;99.90;;;;;;4864164;29;20481;-66
2022/11/05 00:41:02;;;;;;;23.55;14.75;;;5.40;99.90;;;;;;4858429;29;20077;-66
2022/11/05 00:46:14;;;;;;;20.70;12.40;;;5.50;99.90;;;;;;4879657;29;20057;-65
2022/11/05 00:51:27;;;;;;;19.58;13.75;;;5.60;99.90;;;;;;4865777;29;20245;-65
2022/11/05 00:53:54;;;;;;;18.10;12.02;;;5.70;99.90;;;;;;4882793;29;20124;-65
2022/11/05 00:56:20;;;;;;;17.05;11.57;;;5.70;99.90;;;;;;4884011;29;20847;-68
2022/11/05 00:58:47;;;;;;;16.05;12.50;;;5.80;99.90;;;;;;4886845;29;20199;-66
2022/11/05 01:01:14;;;;;;;16.67;12.02;;;5.80;99.90;;;;;;4862359;29;20041;-66
2022/11/05 01:03:43;;;;;;;17.15;11.65;;;5.80;99.90;;;;;;4889820;29;20390;-66
2022/11/05 01:06:17;;;;;;;15.73;11.45;;;5.80;99.90;;;;;;4879532;29;20634;-66
2022/11/05 01:08:44;;;;;;;17.08;11.45;;;5.90;99.90;;;;;;4861567;29;20056;-65
2022/11/05 01:11:35;;;;;;;15.93;11.48;;;5.90;99.90;;;;;;4860172;29;20102;-65
2022/11/05 01:14:06;;;;;;;16.52;11.10;;;6.00;99.90;;;;;;4863333;29;20048;-66
2022/11/05 01:16:33;;;;;;;26.63;12.27;;;6.00;99.90;;;;;;4877015;29;20164;-66
2022/11/05 01:19:01;;;;;;;16.77;11.38;;;6.10;99.90;;;;;;4847344;29;20048;-69
2022/11/05 01:21:28;;;;;;;23.33;11.85;;;6.00;99.90;;;;;;4861763;29;20049;-66
2022/11/05 01:23:57;;;;;;;18.35;10.85;;;6.10;99.90;;;;;;4862770;29;20053;-65
2022/11/05 01:26:24;;;;;;;16.75;10.85;;;6.10;99.90;;;;;;4885110;29;20072;-66
2022/11/05 01:28:55;;;;;;;13.95;10.15;;;6.10;99.90;;;;;;4864519;29;20048;-65
2022/11/05 01:31:22;;;;;;;18.73;10.57;;;6.10;99.90;;;;;;4888102;29;20055;-66
2022/11/05 01:33:49;;;;;;;17.70;11.30;;;6.10;99.90;;;;;;4863984;29;20052;-69
2022/11/05 01:36:16;;;;;;;18.40;11.57;;;6.20;99.90;;;;;;4867173;29;20040;-67
2022/11/05 01:38:45;;;;;;;14.70;10.25;;;6.20;99.90;;;;;;4861584;29;20501;-65
2022/11/05 01:41:11;;;;;;;16.60;9.82;;;6.20;99.90;;;;;;4880404;29;20124;-66
2022/11/05 01:43:53;;;;;;;16.48;10.43;;;6.20;99.90;;;;;;4846975;29;20045;-66
2022/11/05 01:46:25;;;;;;;14.15;8.88;;;6.20;99.90;;;;;;4878808;29;20049;-66
2022/11/05 01:48:52;;;;;;;16.63;10.70;;;6.30;99.90;;;;;;4876858;29;20045;-67
2022/11/05 01:51:25;;;;;;;14.48;10.10;;;6.30;99.90;;;;;;4862170;29;20497;-65
2022/11/05 01:54:01;;;;;;;15.90;9.25;;;6.30;99.90;;;;;;4861398;29;20386;-66
2022/11/05 01:56:40;;;;;;;13.98;8.13;;;6.30;99.90;;;;;;4877312;29;20469;-66
2022/11/05 01:59:15;;;;;;;19.25;9.45;;;6.40;99.90;;;;;;4861737;29;20101;-66
2022/11/05 02:01:42;;;;;;;14.52;8.68;;;6.40;99.90;;;;;;4846876;29;20049;-66
2022/11/05 02:04:10;;;;;;;14.15;9.15;;;6.40;99.90;;;;;;4862328;29;20053;-66
2022/11/05 02:06:44;;;;;;;12.18;7.90;;;6.40;99.90;;;;;;4861552;29;20053;-66
2022/11/05 02:09:39;;;;;;;16.75;9.20;;;6.40;99.90;;;;;;4862551;29;20054;-66
2022/11/05 02:12:07;;;;;;;10.40;7.18;;;6.50;99.90;;;;;;4829973;29;20446;-66
2022/11/05 02:14:34;;;;;;;14.48;9.07;;;6.50;99.90;;;;;;4861734;29;20083;-66
2022/11/05 02:17:03;;;;;;;11.73;7.03;;;6.50;99.90;;;;;;4877382;29;20124;-67
2022/11/05 02:20:05;;;;;;;12.95;7.22;;;6.50;99.90;;;;;;4861584;29;20144;-66
2022/11/05 02:23:19;;;;;;;12.60;6.78;;;6.50;99.90;;;;;;4877474;29;20568;-66
2022/11/05 02:25:46;;;;;;;13.80;7.28;;;6.50;99.90;;;;;;4874365;29;20097;-66
2022/11/05 02:28:17;;;;;;;10.18;7.55;;;6.50;99.90;;;;;;4881997;29;20053;-65
2022/11/05 02:31:01;;;;;;;11.75;7.03;;;6.50;99.90;;;;;;4849653;29;20470;-66
2022/11/05 02:33:41;;;;;;;11.60;6.93;;;6.50;99.90;;;;;;4863927;29;20053;-66
2022/11/05 02:36:42;;;;;;;12.00;6.57;;;6.50;99.90;;;;;;4863204;29;20060;-65
2022/11/05 02:39:25;;;;;;;12.77;6.15;;;6.50;99.90;;;;;;4862734;29;20048;-66
2022/11/05 02:42:05;;;;;;;9.70;5.80;;;6.50;99.90;;;;;;4861832;29;20053;-66
2022/11/05 02:44:40;;;;;;;12.27;7.38;;;6.50;99.90;;;;;;4869719;29;20497;-66
2022/11/05 02:47:07;;;;;;;12.00;5.80;;;6.50;99.90;;;;;;4860861;29;20536;-66
2022/11/05 02:49:47;;;;;;;8.25;5.85;;;6.50;99.90;;;;;;4877356;29;20052;-66
2022/11/05 02:52:22;;;;;;;9.95;5.53;;;6.50;99.90;;;;;;4877844;29;20045;-66
2022/11/05 02:54:57;;;;;;;9.40;5.45;;;6.40;99.90;;;;;;4862029;29;20465;-66
2022/11/05 02:57:23;;;;;;;10.70;6.68;;;6.40;99.90;;;;;;4847238;29;20048;-66
2022/11/05 03:00:05;;;;;;;13.80;7.38;;;6.40;99.90;;;;;;4845741;29;20544;-66
2022/11/05 03:02:32;;;;;;;9.43;5.78;;;6.40;99.90;;;;;;4833633;29;20049;-67
2022/11/05 03:04:59;;;;;;;8.98;5.85;;;6.40;99.90;;;;;;4832267;29;20048;-67
2022/11/05 03:07:38;;;;;;;14.38;7.65;;;6.40;99.90;;;;;;4860073;29;20088;-66
2022/11/05 03:10:27;;;;;;;10.68;5.97;;;6.40;99.90;;;;;;4870202;29;20041;-66
2022/11/05 03:13:21;;;;;;;9.32;5.70;;;6.30;99.90;;;;;;4876879;29;20122;-68
2022/11/05 03:16:01;;;;;;;9.10;4.82;;;6.30;99.90;;;;;;4859972;29;20045;-67
2022/11/05 03:18:38;;;;;;;;;;;6.30;99.90;;;;;;4847733;29;20090;-65
2022/11/05 03:21:15;;;;;;;8.02;4.80;;;6.30;99.90;;;;;;4859797;29;19941;-66
2022/11/05 03:23:51;;;;;;;11.07;5.28;;;6.30;99.90;;;;;;4857817;29;20064;-66
2022/11/05 03:26:22;;;;;;;9.50;5.18;;;6.30;99.90;;;;;;4856470;29;20097;-67
2022/11/05 03:29:01;;;;;;;11.82;5.47;;;6.30;99.90;;;;;;4860710;29;20049;-67
2022/11/05 03:31:28;;;;;;;10.57;6.33;;;6.40;99.90;;;;;;4875163;29;20056;-66
2022/11/05 03:33:55;;;;;;;9.10;5.40;;;6.40;99.90;;;;;;4852500;29;20105;-65
2022/11/05 03:36:28;;;;;;;10.40;6.50;;;6.40;99.90;;;;;;4878268;29;20093;-66
2022/11/05 03:38:55;;;;;;;14.70;6.68;;;6.40;99.90;;;;;;4877653;29;20124;-66
2022/11/05 03:41:22;;;;;;;11.40;7.63;;;6.40;99.90;;;;;;4861756;29;20455;-66
2022/11/05 03:43:50;;;;;;;15.65;7.05;;;6.50;99.90;;;;;;4885483;29;20048;-66
2022/11/05 03:46:20;;;;;;;14.68;7.18;;;6.50;99.90;;;;;;4847066;29;20730;-66
2022/11/05 03:48:51;;;;;;;18.80;8.27;;;6.50;99.90;;;;;;4861620;29;20136;-67
2022/11/05 03:51:30;;;;;;;14.32;7.63;;;6.50;99.90;;;;;;4863576;29;20049;-66
2022/11/05 03:53:58;;;;;;;15.68;7.15;;;6.60;99.90;;;;;;4864186;29;20116;-66
2022/11/05 03:56:44;;;;;;;12.07;6.75;;;6.60;99.90;;;;;;4858986;29;20069;-65
2022/11/05 03:59:11;;;;;;;11.55;7.03;;;6.60;99.90;;;;;;4851667;29;20056;-70
2022/11/05 04:01:39;;;;;;;12.75;6.53;;;6.60;99.90;;;;;;4848705;29;20049;-66
2022/11/05 04:04:08;;;;;;;10.73;6.85;;;6.60;99.90;;;;;;4864464;29;20052;-66
2022/11/05 04:14:51;;;;;;;8.60;5.35;;;6.70;99.90;;;;;;4874797;29;20093;-71
2022/11/05 04:17:18;;;;;;;12.00;6.22;;;6.80;99.90;;;;;;4862575;29;20128;-66
2022/11/05 04:25:18;;;;;;;10.88;5.40;;;6.80;99.90;;;;;;4889696;29;20045;-66
2022/11/05 04:27:45;;;;;;;10.93;5.25;;;6.70;99.90;;;;;;4862565;29;20541;-66
2022/11/05 04:30:18;;;;;;;8.80;5.75;;;6.70;99.90;;;;;;4840329;29;20521;-66
2022/11/05 04:33:01;;;;;;;8.80;5.60;;;6.70;99.90;;;;;;4866679;29;20124;-66
2022/11/05 04:35:35;;;;;;;7.20;4.18;;;6.70;99.90;;;;;;4866273;29;20044;-65
2022/11/05 04:38:07;;;;;;;8.25;5.55;;;6.80;99.90;;;;;;4878260;29;20057;-66
2022/11/05 04:40:34;;;;;;;9.02;5.13;;;6.80;99.90;;;;;;4885881;29;20112;-66
2022/11/05 04:43:01;;;;;;;6.82;4.53;;;6.90;99.90;;;;;;4863789;29;20049;-66
2022/11/05 04:45:29;;;;;;;10.38;4.65;;;6.90;99.90;;;;;;4862248;29;20049;-66
2022/11/05 04:47:56;;;;;;;10.70;5.25;;;6.90;99.90;;;;;;4846945;29;20081;-66
2022/11/05 04:50:23;;;;;;;6.68;4.05;;;6.90;99.90;;;;;;4860947;29;20100;-66
2022/11/05 04:52:50;;;;;;;6.85;4.05;;;6.90;99.90;;;;;;4886370;29;20485;-66
2022/11/05 04:55:17;;;;;;;13.02;7.05;;;7.00;99.90;;;;;;4887274;29;20049;-66
2022/11/05 04:57:47;;;;;;;9.27;5.13;;;7.00;99.90;;;;;;4887873;29;20080;-66
2022/11/05 05:00:14;;;;;;;8.18;5.45;;;7.00;99.90;;;;;;4880068;29;20052;-66
2022/11/05 05:02:41;;;;;;;8.23;5.35;;;7.00;99.90;;;;;;4863170;29;20100;-66
2022/11/05 05:05:08;;;;;;;14.15;6.40;;;7.00;99.90;;;;;;4869586;29;20053;-66
2022/11/05 05:07:35;;;;;;;11.05;5.72;;;7.00;99.90;;;;;;4881329;29;20077;-66
2022/11/05 05:10:03;;;;;;;7.32;5.03;;;7.00;99.90;;;;;;4861837;29;20565;-66
2022/11/05 05:12:31;;;;;;;9.43;4.80;;;7.00;99.90;;;;;;4846696;29;20057;-69
2022/11/05 05:14:58;;;;;;;9.05;4.57;;;7.10;99.90;;;;;;4861260;29;20045;-66
2022/11/05 05:17:25;;;;;;;8.73;4.97;;;7.10;99.90;;;;;;4878137;29;20545;-67
2022/11/05 05:22:37;;;;;;;6.68;4.03;;;7.20;99.90;;;;;;4878972;29;20383;-65
2022/11/05 05:25:07;;;;;;;8.00;5.28;;;7.30;99.90;;;;;;4861516;29;20542;-67
2022/11/05 05:27:34;;;;;;;9.77;5.00;;;7.30;99.90;;;;;;4858541;29;20127;-66
2022/11/05 05:30:01;;;;;;;11.65;5.18;;;7.30;99.90;;;;;;4861493;29;20097;-70
2022/11/05 05:32:28;;;;;;;11.32;5.65;;;7.40;99.90;;;;;;4861138;29;20048;-66
2022/11/05 05:34:55;;;;;;;11.45;7.18;;;7.40;99.90;;;;;;4863112;29;20049;-66
2022/11/05 05:37:21;;;;;;;10.25;4.85;;;7.40;99.90;;;;;;4868378;29;20048;-66
2022/11/05 05:39:50;;;;;;;16.70;5.50;;;7.40;99.90;;;;;;4875122;29;20045;-66
2022/11/05 05:42:17;;;;;;;9.90;4.40;;;7.40;99.90;;;;;;4872999;29;20056;-66
2022/11/05 05:44:44;;;;;;;9.27;4.38;;;7.40;99.90;;;;;;4860959;29;20053;-68
2022/11/05 05:47:12;;;;;;;9.23;4.70;;;7.40;99.90;;;;;;4879898;29;20072;-67
2022/11/05 05:49:41;;;;;;;6.85;4.57;;;7.40;99.90;;;;;;4859034;29;20056;-66
2022/11/05 05:52:08;;;;;;;9.85;3.80;;;7.50;99.90;;;;;;4849247;29;20125;-66
2022/11/05 05:54:35;;;;;;;7.80;3.00;;;7.50;99.90;;;;;;4860607;29;20053;-68
2022/11/05 05:57:08;;;;;;;6.88;3.00;;;7.60;99.90;;;;;;4862539;29;20040;-69
2022/11/05 05:59:35;;;;;;;7.38;4.32;;;7.60;99.90;;;;;;4865176;29;20438;-67
2022/11/05 06:02:02;;;;;;;9.63;5.78;;;7.70;99.90;;;;;;4884827;29;20469;-66
2022/11/05 06:04:29;;;;;;;8.15;4.40;;;7.80;99.90;;;;;;4877713;29;20045;-66
2022/11/05 06:06:58;;;;;;;;;;;7.80;99.90;;;;;;4852121;29;20065;-65
2022/11/05 06:09:25;;;;;;;13.60;3.90;;;7.90;99.90;;;;;;4885046;29;19932;-67
2022/11/05 06:11:52;;;;;;;8.35;3.05;;;7.90;99.90;;;;;;4861519;29;20096;-65
2022/11/05 06:14:19;;;;;;;9.23;3.13;;;7.90;99.90;;;;;;4874840;29;20097;-65
2022/11/05 06:16:46;;;;;;;6.20;2.65;;;8.00;99.90;;;;;;4871682;29;20056;-65
2022/11/05 06:19:13;;;;;;;9.73;3.78;;;8.00;99.90;;;;;;4870538;29;20053;-65
2022/11/05 06:21:39;;;;;;;6.28;3.28;;;8.00;99.90;;;;;;4876552;29;20041;-65
2022/11/05 06:24:07;;;;;;;6.88;2.85;;;8.10;99.90;;;;;;4882616;29;20041;-65
2022/11/05 06:26:41;;;;;;;6.35;3.45;;;8.10;99.90;;;;;;4886432;29;20068;-65
2022/11/05 06:29:09;;;;;;;9.80;4.03;;;8.10;99.90;;;;;;4877585;29;20048;-65
2022/11/05 06:31:36;;;;;;;10.68;4.05;;;8.10;99.90;;;;;;4880529;29;20167;-65
2022/11/05 06:34:03;;;;;;;9.20;3.28;;;8.10;99.90;;;;;;4882839;29;20044;-65
2022/11/05 06:36:30;;;;;;;10.05;2.80;;;8.10;99.90;;;;;;4884796;29;20048;-71
2022/11/05 06:38:58;;;;;;;6.30;3.53;;;8.10;99.90;;;;;;4878878;29;20481;-65
2022/11/05 06:41:24;;;;;;;7.07;2.75;;;8.20;99.90;;;;;;4860912;29;20049;-66
2022/11/05 06:43:51;;;;;;;8.52;2.80;;;8.20;99.90;;;;;;4845298;29;20701;-65
2022/11/05 06:46:18;;;;;;;9.40;2.75;;;8.20;99.90;;;;;;4860444;29;20049;-65
2022/11/05 06:48:46;;;;;;;5.75;2.78;;;8.20;99.90;;;;;;4879435;29;20041;-65
2022/11/05 06:51:14;;;;;;;6.57;2.78;;;8.20;99.90;;;;;;4876640;29;20037;-65
2022/11/05 06:53:41;;;;;;;5.90;2.75;;;8.30;99.90;;;;;;4877254;29;21494;-66
2022/11/05 06:56:08;;;;;;;7.30;3.22;;;8.30;99.90;;;;;;4881670;29;20048;-65
2022/11/05 06:58:35;;;;;;;7.63;3.20;;;8.30;99.90;;;;;;4861984;29;20040;-65
2022/11/05 07:01:03;;;;;;;7.72;3.05;;;8.30;99.90;;;;;;4876371;29;20083;-65
2022/11/05 07:03:30;;;;;;;7.68;3.25;;;8.30;99.90;;;;;;4859981;29;20084;-67
2022/11/05 07:05:58;;;;;;;8.93;4.03;;;8.30;99.90;;;;;;4872587;29;20045;-68
2022/11/05 07:08:29;;;;;;;7.20;2.75;;;8.30;99.90;;;;;;4845354;29;20060;-65
2022/11/05 07:10:56;;;;;;;8.38;2.80;;;8.30;99.90;;;;;;4857612;29;20052;-65
2022/11/05 07:13:23;;;;;;;7.53;2.78;;;8.40;99.90;;;;;;4862170;29;20044;-65
2022/11/05 07:15:50;;;;;;;6.55;2.90;;;8.40;99.90;;;;;;4882055;29;20060;-67
2022/11/05 07:18:17;;;;;;;19.65;3.35;;;8.40;99.90;;;;;;4878585;29;20069;-65
2022/11/05 07:20:44;;;;;;;8.13;3.20;;;8.50;99.90;;;;;;4882383;29;20089;-65
2022/11/05 07:23:12;;;;;;;4.95;2.30;;;8.50;99.90;;;;;;4848545;29;20557;-65
2022/11/05 07:25:40;;;;;;;9.85;2.55;;;8.50;99.90;;;;;;4876944;29;20037;-65
2022/11/05 07:28:07;;;;;;;5.72;2.38;;;8.50;99.90;;;;;;4863627;29;20060;-65
2022/11/05 07:30:34;;;;;;;6.50;2.15;;;8.50;99.90;;;;;;4884081;29;20384;-65
2022/11/05 07:33:01;;;;;;;7.70;2.10;;;8.60;99.90;;;;;;4867461;29;20041;-65
2022/11/05 07:35:29;;;;;;;17.70;11.48;;;8.60;99.90;;;;;;4884913;29;20049;-66
2022/11/05 07:37:58;;;;;;;41.78;31.30;;;8.60;99.90;;;;;;4858855;29;20064;-66
2022/11/05 07:40:26;;;;;;;24.77;18.75;;;8.60;99.90;;;;;;4880507;29;20073;-65
2022/11/05 07:42:57;;;;;;;10.68;6.18;;;8.60;99.90;;;;;;4863282;29;20097;-69
2022/11/05 07:45:24;;;;;;;6.72;3.70;;;8.60;99.90;;;;;;4877430;29;20056;-65
2022/11/05 07:47:59;;;;;;;6.53;3.47;;;8.60;99.90;;;;;;4862913;29;20560;-62
2022/11/05 07:50:28;;;;;;;29.23;22.45;;;8.60;99.90;;;;;;4881277;29;20412;-65
2022/11/05 07:53:10;;;;;;;38.28;27.00;;;8.70;99.90;;;;;;4863861;29;20057;-65
2022/11/05 07:55:39;;;;;;;11.18;6.00;;;8.70;99.90;;;;;;4882236;29;20064;-65
2022/11/05 07:58:06;;;;;;;7.13;3.10;;;8.70;99.90;;;;;;4880556;29;20036;-64
2022/11/05 08:00:32;;;;;;;9.70;3.55;;;8.80;99.90;;;;;;4861834;29;20064;-56
2022/11/05 08:03:04;;;;;;;12.35;8.13;;;8.80;99.90;;;;;;4862260;29;20476;-59
2022/11/05 08:05:36;;;;;;;11.05;4.22;;;8.90;99.90;;;;;;4878632;29;20446;-64
2022/11/05 08:08:03;;;;;;;9.40;3.45;;;8.90;99.90;;;;;;4864673;29;20053;-64
2022/11/05 08:10:31;;;;;;;8.00;2.92;;;9.00;99.90;;;;;;4878176;29;20041;-65
2022/11/05 08:12:59;;;;;;;5.60;2.70;;;9.00;99.90;;;;;;4883228;29;20037;-68
2022/11/05 08:15:26;;;;;;;7.18;3.25;;;9.00;99.90;;;;;;4871021;29;20048;-66
2022/11/05 08:17:59;;;;;;;8.02;2.40;;;9.10;99.90;;;;;;4876009;29;20066;-66
2022/11/05 08:20:26;;;;;;;10.65;5.50;;;9.10;99.90;;;;;;4876783;29;20105;-65
2022/11/05 08:22:54;;;;;;;7.82;3.47;;;9.10;99.90;;;;;;4880915;29;20117;-73
2022/11/05 08:25:21;;;;;;;9.98;2.95;;;9.10;99.90;;;;;;4884253;29;20048;-67
2022/11/05 08:27:54;;;;;;;12.77;3.97;;;9.20;99.90;;;;;;4887658;29;20650;-66
2022/11/05 08:30:21;;;;;;;313.40;238.95;;;9.20;99.90;;;;;;4889239;29;20045;-60
2022/11/05 08:32:48;;;;;;;19.90;15.52;;;9.20;99.90;;;;;;4879905;29;20053;-66
2022/11/05 08:35:17;;;;;;;10.40;5.43;;;9.30;99.90;;;;;;4895239;29;20056;-66
2022/11/05 08:37:44;;;;;;;11.35;4.47;;;9.30;99.90;;;;;;4885578;29;20049;-66
2022/11/05 08:40:11;;;;;;;6.57;2.88;;;9.30;99.90;;;;;;4863299;29;20049;-69
2022/11/05 08:42:38;;;;;;;6.82;2.10;;;9.40;99.90;;;;;;4887266;29;20052;-68
2022/11/05 08:45:05;;;;;;;8.63;2.85;;;9.40;99.90;;;;;;4886507;29;20048;-68
2022/11/05 08:47:32;;;;;;;5.32;2.03;;;9.40;99.90;;;;;;4880029;29;20608;-67
2022/11/05 08:49:59;;;;;;;9.95;2.78;;;9.40;99.90;;;;;;4877930;29;20051;-69
2022/11/05 08:52:26;;;;;;;5.65;1.77;;;9.50;99.90;;;;;;4881281;29;20056;-70
2022/11/05 08:54:52;;;;;;;11.00;3.28;;;9.50;99.90;;;;;;4879753;29;20049;-67
2022/11/05 08:57:19;;;;;;;5.95;2.03;;;9.60;99.90;;;;;;4888728;29;20045;-67
2022/11/05 08:59:46;;;;;;;9.38;2.30;;;9.60;99.90;;;;;;4864844;29;20158;-67
2022/11/05 09:02:14;;;;;;;5.80;2.22;;;9.70;99.90;;;;;;4862794;29;20081;-67
2022/11/05 09:04:41;;;;;;;4.88;2.05;;;9.70;99.90;;;;;;4861714;29;20433;-66
2022/11/05 09:07:08;;;;;;;4.60;2.13;;;9.80;99.90;;;;;;4868823;29;20056;-66
2022/11/05 09:09:35;;;;;;;5.93;2.38;;;9.80;99.90;;;;;;4882461;29;20049;-67
2022/11/05 09:12:02;;;;;;;7.55;2.15;;;9.90;99.90;;;;;;4875385;29;20053;-59
2022/11/05 09:14:38;;;;;;;30.42;24.70;;;9.90;99.90;;;;;;4862919;29;20204;-60
2022/11/05 09:17:14;;;;;;;7.60;4.38;;;10.00;99.90;;;;;;4879081;29;20067;-60
2022/11/05 09:19:41;;;;;;;126.32;87.90;;;10.10;99.90;;;;;;4850735;29;20057;-60
2022/11/05 09:22:51;;;;;;;20.30;15.60;;;10.20;99.90;;;;;;4886689;29;20053;-60
2022/11/05 09:25:18;;;;;;;23.17;14.70;;;10.20;99.90;;;;;;4881951;29;20049;-59
2022/11/05 09:27:45;;;;;;;50.03;30.10;;;10.30;99.90;;;;;;4885223;29;20508;-56
2022/11/05 09:30:12;;;;;;;12.40;6.57;;;10.40;99.90;;;;;;4877566;29;20458;-53
2022/11/05 15:15:20;;;;;;;8.50;3.35;;;12.50;99.90;;;;;;4867854;29;20071;-61
2022/11/05 15:18:00;;;;;;;10.77;3.97;;;12.50;99.90;;;;;;4877231;29;20059;-62
2022/11/05 15:20:45;;;;;;;10.10;4.93;;;12.60;99.90;;;;;;4856161;29;20037;-61
2022/11/05 15:23:14;;;;;;;26.98;14.90;;;12.60;99.90;;;;;;4860039;29;20052;-62
2022/11/05 15:25:55;;;;;;;39.50;23.92;;;12.60;99.90;;;;;;4854314;29;20077;-61
2022/11/05 15:28:45;;;;;;;12.93;6.25;;;12.70;99.90;;;;;;4860013;29;20036;-61
2022/11/05 15:31:12;;;;;;;14.57;7.10;;;12.70;99.90;;;;;;4849905;29;20490;-62
2022/11/05 15:33:41;;;;;;;7.43;3.08;;;12.70;99.90;;;;;;4876732;29;20389;-61
2022/11/05 15:36:28;;;;;;;13.18;5.10;;;12.70;99.90;;;;;;4876333;29;20048;-61
2022/11/05 15:38:55;;;;;;;10.40;3.85;;;12.70;99.90;;;;;;4880806;29;20101;-61
2022/11/05 15:41:42;;;;;;;10.63;4.90;;;12.70;99.90;;;;;;4869973;29;20043;-61
2022/11/05 15:44:32;;;;;;;11.18;5.65;;;12.80;99.90;;;;;;4875992;29;20045;-62
2022/11/05 15:47:18;;;;;;;13.20;4.15;;;12.80;99.90;;;;;;4862542;29;20116;-62
2022/11/05 15:49:56;;;;;;;14.10;4.47;;;12.80;99.90;;;;;;4879545;29;20044;-62
2022/11/05 15:52:30;;;;;;;7.43;2.92;;;12.80;99.90;;;;;;4850688;29;20084;-61
2022/11/05 15:55:12;;;;;;;9.77;4.30;;;12.80;99.90;;;;;;4882452;29;20481;-61
2022/11/05 15:57:46;;;;;;;11.20;3.42;;;12.80;99.90;;;;;;4879379;29;20446;-61
2022/11/05 16:00:21;;;;;;;10.73;3.03;;;12.80;99.90;;;;;;4883102;29;20045;-61
2022/11/05 16:02:55;;;;;;;13.50;4.25;;;12.80;99.90;;;;;;4885378;29;20101;-62
2022/11/05 16:05:22;;;;;;;9.57;3.00;;;12.80;99.90;;;;;;4880239;29;20104;-66
2022/11/05 16:07:49;;;;;;;11.85;3.85;;;12.80;99.90;;;;;;4887597;29;20052;-61
2022/11/05 16:10:18;;;;;;;11.73;4.75;;;12.80;99.90;;;;;;4880713;29;20083;-65
2022/11/05 16:12:46;;;;;;;11.00;3.90;;;12.80;99.90;;;;;;4880008;29;20438;-62
2022/11/05 16:15:12;;;;;;;11.02;4.00;;;12.80;99.90;;;;;;4856424;29;20542;-61
2022/11/05 16:17:49;;;;;;;10.82;7.63;;;12.80;99.90;;;;;;4882584;29;20702;-61
2022/11/05 16:20:20;;;;;;;9.88;3.65;;;12.70;99.90;;;;;;4879760;29;20056;-63
2022/11/05 16:22:49;;;;;;;12.55;7.03;;;12.80;99.90;;;;;;4873521;29;20430;-61
2022/11/05 16:25:42;;;;;;;18.75;9.20;;;12.70;99.90;;;;;;4884896;29;20079;-63
2022/11/05 16:28:23;;;;;;;9.02;4.70;;;12.70;99.90;;;;;;4876697;29;20120;-61
2022/11/05 16:30:57;;;;;;;8.88;4.38;;;12.70;99.90;;;;;;4858812;29;20037;-61
2022/11/05 16:33:36;;;;;;;10.73;5.10;;;12.70;99.90;;;;;;4852311;29;20037;-63
2022/11/05 16:36:03;;;;;;;6.13;3.35;;;12.70;99.90;;;;;;4883896;29;20045;-61
2022/11/05 16:38:30;;;;;;;12.23;4.45;;;12.70;99.90;;;;;;4864713;29;20081;-61
2022/11/05 16:40:59;;;;;;;15.63;5.47;;;12.70;99.90;;;;;;4886389;29;20526;-61
2022/11/05 16:43:26;;;;;;;10.63;4.45;;;12.70;99.90;;;;;;4886372;29;20481;-62
2022/11/05 16:45:54;;;;;;;9.80;6.07;;;12.70;99.90;;;;;;4878578;29;20049;-61
2022/11/05 16:48:21;;;;;;;10.20;4.97;;;12.60;99.90;;;;;;4881755;29;20045;-61
2022/11/05 16:50:47;;;;;;;10.20;3.22;;;12.60;99.90;;;;;;4879703;29;20044;-60
2022/11/05 16:53:14;;;;;;;7.38;2.83;;;12.70;99.90;;;;;;4879190;29;20053;-61
2022/11/05 16:55:42;;;;;;;8.85;4.32;;;12.70;99.90;;;;;;4878712;29;20065;-61
2022/11/05 16:58:20;;;;;;;9.68;5.40;;;12.70;99.90;;;;;;4850590;29;20044;-61
2022/11/05 17:00:48;;;;;;;7.45;3.22;;;12.70;99.90;;;;;;4847918;29;20049;-62
2022/11/05 17:03:15;;;;;;;6.15;3.00;;;12.70;99.90;;;;;;4838286;29;20064;-61
2022/11/05 17:05:42;;;;;;;5.82;3.20;;;12.70;99.90;;;;;;4875791;29;20125;-61
2022/11/05 17:08:09;;;;;;;7.50;2.58;;;12.70;99.90;;;;;;4879515;29;20044;-61
2022/11/05 17:10:37;;;;;;;8.45;5.68;;;12.70;99.90;;;;;;4855218;29;20072;-61
2022/11/05 17:13:03;;;;;;;6.43;2.83;;;12.70;99.90;;;;;;4880304;29;20044;-62
2022/11/05 17:15:34;;;;;;;25.70;23.10;;;12.70;99.90;;;;;;4864945;29;20177;-62
2022/11/05 17:18:01;;;;;;;9.57;6.88;;;12.70;99.90;;;;;;4860532;29;20053;-61
2022/11/05 17:35:53;;;;;;;6.28;4.15;;;12.70;99.90;;;;;;4880187;29;20037;-61
2022/11/05 17:38:20;;;;;;;6.93;4.13;;;12.70;99.90;;;;;;4879287;29;20462;-59
2022/11/05 17:40:47;;;;;;;8.00;3.50;;;12.70;99.90;;;;;;4877710;29;20049;-60
2022/11/05 17:43:14;;;;;;;78.13;66.88;;;12.70;99.90;;;;;;4877466;29;20105;-59
2022/11/05 17:45:49;;;;;;;24.15;17.10;;;12.80;99.90;;;;;;4886322;29;20059;-63
2022/11/05 17:48:16;;;;;;;6.90;4.30;;;12.80;99.90;;;;;;4878396;29;21621;-60
2022/11/05 17:50:47;;;;;;;41.22;33.65;;;12.80;99.90;;;;;;4882278;29;20056;-58
2022/11/05 17:53:15;;;;;;;24.65;18.90;;;12.80;99.90;;;;;;4885709;29;20048;-59
2022/11/05 17:55:42;;;;;;;7.97;5.10;;;12.90;99.90;;;;;;4882664;29;20048;-59
2022/11/05 17:58:10;;;;;;;18.60;12.32;;;12.90;99.90;;;;;;4867308;29;20052;-59
2022/11/05 18:00:37;;;;;;;7.43;5.53;;;12.90;99.90;;;;;;4866824;29;20083;-59
2022/11/05 18:03:03;;;;;;;14.63;10.13;;;12.90;99.90;;;;;;4898806;29;20101;-59
2022/11/05 18:05:30;;;;;;;11.40;8.20;;;13.00;99.90;;;;;;4899206;29;20369;-59
2022/11/05 18:07:57;;;;;;;7.10;5.00;;;13.00;99.90;;;;;;4882823;29;20358;-59
2022/11/05 18:10:24;;;;;;;14.82;8.40;;;13.00;99.90;;;;;;4898363;29;20446;-59
2022/11/05 18:12:51;;;;;;;12.73;7.40;;;13.00;99.90;;;;;;4898740;29;20044;-58
2022/11/05 18:15:18;;;;;;;7.20;6.35;;;13.00;99.90;;;;;;4899046;29;20049;-59
2022/11/05 18:17:45;;;;;;;8.43;4.97;;;13.00;99.90;;;;;;4882239;29;20112;-59
2022/11/05 18:20:13;;;;;;;51.33;45.83;;;13.00;99.90;;;;;;4882210;29;20104;-59
2022/11/05 18:22:45;;;;;;;13.35;11.35;;;13.00;99.90;;;;;;4882862;29;20088;-59
2022/11/05 18:25:12;;;;;;;10.55;7.85;;;13.10;99.90;;;;;;4881861;29;20104;-59
2022/11/05 18:27:39;;;;;;;10.38;7.55;;;13.00;99.90;;;;;;4881746;29;20120;-59
2022/11/05 18:30:07;;;;;;;11.55;6.57;;;13.00;99.90;;;;;;4898036;29;20484;-59
2022/11/05 18:32:34;;;;;;;12.30;7.90;;;13.00;99.90;;;;;;4866316;29;20091;-59
2022/11/05 18:35:01;;;;;;;8.05;5.70;;;13.00;99.90;;;;;;4866685;29;20048;-59
2022/11/05 18:37:28;;;;;;;11.38;7.28;;;13.10;99.90;;;;;;4882627;29;20100;-59
2022/11/05 18:39:54;;;;;;;18.50;14.23;;;13.10;99.90;;;;;;4898267;29;20112;-58
2022/11/05 18:42:21;;;;;;;11.73;5.28;;;13.10;99.90;;;;;;4882535;29;20040;-59
2022/11/05 18:44:48;;;;;;;21.85;12.93;;;13.10;99.90;;;;;;4898415;29;20052;-59
2022/11/05 18:47:15;;;;;;;15.95;9.30;;;13.10;99.90;;;;;;4881721;29;20053;-59
2022/11/05 18:49:42;;;;;;;7.32;4.57;;;13.10;99.90;;;;;;4881485;29;20049;-59
2022/11/05 18:52:09;;;;;;;10.02;6.82;;;13.10;99.90;;;;;;4898316;29;20079;-59
2022/11/05 18:54:36;;;;;;;8.35;5.45;;;13.10;99.90;;;;;;4899184;29;20045;-59
2022/11/05 18:57:03;;;;;;;40.33;36.10;;;13.20;99.90;;;;;;4882067;29;20052;-58
2022/11/05 18:59:29;;;;;;;15.23;12.00;;;13.20;99.90;;;;;;4882379;29;20104;-65
2022/11/05 19:02:04;;;;;;;11.30;8.48;;;13.20;99.90;;;;;;4898088;29;20041;-61
2022/11/05 19:04:31;;;;;;;29.67;22.65;;;13.20;99.90;;;;;;4881813;29;20127;-59
2022/11/05 19:06:58;;;;;;;21.33;16.42;;;13.20;99.90;;;;;;4898088;29;20053;-59
2022/11/05 19:09:31;;;;;;;23.15;20.08;;;13.20;99.90;;;;;;4882401;29;20052;-59
2022/11/05 19:11:58;;;;;;;28.42;23.60;;;13.30;99.90;;;;;;4881574;29;20048;-59
2022/11/05 19:14:25;;;;;;;35.78;28.58;;;13.20;99.90;;;;;;4898214;29;20084;-59
2022/11/05 19:16:52;;;;;;;16.85;12.07;;;13.30;99.90;;;;;;4881100;29;20457;-59
2022/11/05 19:19:19;;;;;;;7.53;5.10;;;13.30;99.90;;;;;;4898593;29;20044;-59
2022/11/05 19:21:46;;;;;;;10.20;6.72;;;13.20;99.90;;;;;;4896027;29;20048;-59
2022/11/05 19:24:14;;;;;;;7.70;5.50;;;13.30;99.90;;;;;;4897549;29;20112;-59
2022/11/05 19:26:43;;;;;;;8.40;6.03;;;13.30;99.90;;;;;;4867043;29;20138;-60
2022/11/05 19:29:10;;;;;;;6.80;5.68;;;13.30;99.90;;;;;;4881212;29;20396;-59
2022/11/05 19:31:37;;;;;;;8.13;5.70;;;13.20;99.90;;;;;;4881579;29;20049;-60
2022/11/05 19:34:04;;;;;;;9.48;5.78;;;13.20;99.90;;;;;;4881760;29;20051;-60
2022/11/05 19:36:31;;;;;;;5.63;4.45;;;13.20;99.90;;;;;;4897850;29;20052;-61
2022/11/05 19:39:00;;;;;;;9.05;5.05;;;13.20;99.90;;;;;;4866331;29;20430;-59